sensor_id;sensor_type;location;lat;lon;timestamp;pressure;altitude;pressure_sealevel;temperature;humidity
9523;BME280;63165;43.016;25.784;2023-07-20T00:00:44;99853.81;;;24.56;87.53
9523;BME280;63165;43.016;25.784;2023-07-20T00:03:13;99849.38;;;24.44;89.14
9523;BME280;63165;43.016;25.784;2023-07-20T00:05:42;99847.78;;;24.30;89.72
9523;BME280;63165;43.016;25.784;2023-07-20T00:08:10;99847.88;;;24.17;91.29
9523;BME280;63165;43.016;25.784;2023-07-20T00:10:40;99845.78;;;24.09;92.22
9523;BME280;63165;43.016;25.784;2023-07-20T00:13:07;99846.72;;;23.97;93.31
9523;BME280;63165;43.016;25.784;2023-07-20T00:15:35;99849.13;;;23.89;95.90
9523;BME280;63165;43.016;25.784;2023-07-20T00:18:03;99848.72;;;23.82;98.17
9523;BME280;63165;43.016;25.784;2023-07-20T00:20:31;99849.91;;;23.78;98.46
9523;BME280;63165;43.016;25.784;2023-07-20T00:22:58;99845.75;;;23.74;98.02
9523;BME280;63165;43.016;25.784;2023-07-20T00:25:25;99840.00;;;23.67;97.02
9523;BME280;63165;43.016;25.784;2023-07-20T00:27:55;99825.28;;;23.61;95.59
9523;BME280;63165;43.016;25.784;2023-07-20T00:30:22;99811.44;;;23.56;96.19
9523;BME280;63165;43.016;25.784;2023-07-20T00:32:49;99808.13;;;23.53;95.96
9523;BME280;63165;43.016;25.784;2023-07-20T00:35:17;99785.56;;;23.45;96.07
9523;BME280;63165;43.016;25.784;2023-07-20T00:37:44;99775.09;;;23.42;97.24
9523;BME280;63165;43.016;25.784;2023-07-20T00:40:12;99782.59;;;23.37;97.84
9523;BME280;63165;43.016;25.784;2023-07-20T00:42:39;99773.84;;;23.35;100.00
9523;BME280;63165;43.016;25.784;2023-07-20T00:45:09;99775.41;;;23.38;100.00
9523;BME280;63165;43.016;25.784;2023-07-20T00:47:36;99755.03;;;23.37;100.00
9523;BME280;63165;43.016;25.784;2023-07-20T00:50:05;99731.53;;;23.42;100.00
9523;BME280;63165;43.016;25.784;2023-07-20T00:52:33;99724.25;;;23.44;100.00
9523;BME280;63165;43.016;25.784;2023-07-20T00:55:00;99714.31;;;23.46;100.00
9523;BME280;63165;43.016;25.784;2023-07-20T00:57:28;99711.63;;;23.46;100.00
9523;BME280;63165;43.016;25.784;2023-07-20T00:59:55;99696.56;;;23.45;100.00
9523;BME280;63165;43.016;25.784;2023-07-20T01:02:24;99691.47;;;23.42;100.00
9523;BME280;63165;43.016;25.784;2023-07-20T01:04:51;99688.19;;;23.38;100.00
9523;BME280;63165;43.016;25.784;2023-07-20T01:07:24;99675.78;;;23.37;100.00
9523;BME280;63165;43.016;25.784;2023-07-20T01:09:59;99670.44;;;23.37;100.00
9523;BME280;63165;43.016;25.784;2023-07-20T01:12:32;99667.16;;;23.34;100.00
9523;BME280;63165;43.016;25.784;2023-07-20T01:15:03;99662.09;;;23.31;100.00
9523;BME280;63165;43.016;25.784;2023-07-20T01:17:34;99652.47;;;23.28;100.00
9523;BME280;63165;43.016;25.784;2023-07-20T01:20:03;99646.75;;;23.21;100.00
9523;BME280;63165;43.016;25.784;2023-07-20T01:22:50;99611.56;;;23.16;100.00
9523;BME280;63165;43.016;25.784;2023-07-20T01:25:33;99546.28;;;23.09;100.00
9523;BME280;63165;43.016;25.784;2023-07-20T01:28:30;99401.66;;;22.93;100.00
9523;BME280;63165;43.016;25.784;2023-07-20T01:31:23;99309.66;;;22.76;100.00
9523;BME280;63165;43.016;25.784;2023-07-20T01:33:54;99326.75;;;22.62;100.00
9523;BME280;63165;43.016;25.784;2023-07-20T01:36:24;99301.91;;;22.50;100.00
9523;BME280;63165;43.016;25.784;2023-07-20T01:38:52;99266.88;;;22.43;100.00
9523;BME280;63165;43.016;25.784;2023-07-20T01:41:19;99272.53;;;22.39;100.00
9523;BME280;63165;43.016;25.784;2023-07-20T01:43:47;99294.25;;;22.34;100.00
9523;BME280;63165;43.016;25.784;2023-07-20T01:46:15;99290.00;;;22.32;100.00
9523;BME280;63165;43.016;25.784;2023-07-20T01:48:43;99296.28;;;22.31;100.00
9523;BME280;63165;43.016;25.784;2023-07-20T01:51:10;99328.38;;;22.29;100.00
9523;BME280;63165;43.016;25.784;2023-07-20T01:53:37;99332.97;;;22.27;100.00
9523;BME280;63165;43.016;25.784;2023-07-20T01:56:05;99327.53;;;22.28;100.00
9523;BME280;63165;43.016;25.784;2023-07-20T01:58:32;99348.84;;;22.28;100.00
9523;BME280;63165;43.016;25.784;2023-07-20T02:01:01;99356.75;;;22.30;100.00
9523;BME280;63165;43.016;25.784;2023-07-20T02:03:30;99358.56;;;22.29;100.00
9523;BME280;63165;43.016;25.784;2023-07-20T02:05:57;99361.22;;;22.29;100.00
9523;BME280;63165;43.016;25.784;2023-07-20T02:08:25;99368.69;;;22.24;100.00
9523;BME280;63165;43.016;25.784;2023-07-20T02:10:52;99377.22;;;22.29;100.00
9523;BME280;63165;43.016;25.784;2023-07-20T02:13:19;99391.03;;;22.35;100.00
9523;BME280;63165;43.016;25.784;2023-07-20T02:15:46;99390.06;;;22.36;100.00
9523;BME280;63165;43.016;25.784;2023-07-20T02:18:15;99392.84;;;22.34;100.00
9523;BME280;63165;43.016;25.784;2023-07-20T02:20:44;99390.22;;;22.21;100.00
9523;BME280;63165;43.016;25.784;2023-07-20T02:23:11;99376.16;;;22.19;100.00
9523;BME280;63165;43.016;25.784;2023-07-20T02:25:39;99379.47;;;22.23;100.00
9523;BME280;63165;43.016;25.784;2023-07-20T02:28:07;99381.16;;;22.24;100.00
9523;BME280;63165;43.016;25.784;2023-07-20T02:30:37;99389.56;;;22.31;100.00
9523;BME280;63165;43.016;25.784;2023-07-20T02:33:04;99370.19;;;22.28;100.00
9523;BME280;63165;43.016;25.784;2023-07-20T02:35:32;99369.44;;;22.26;100.00
9523;BME280;63165;43.016;25.784;2023-07-20T02:38:00;99367.84;;;22.24;100.00
9523;BME280;63165;43.016;25.784;2023-07-20T02:40:28;99362.84;;;22.19;100.00
9523;BME280;63165;43.016;25.784;2023-07-20T02:42:56;99356.69;;;22.19;100.00
9523;BME280;63165;43.016;25.784;2023-07-20T02:45:23;99361.28;;;22.17;100.00
9523;BME280;63165;43.016;25.784;2023-07-20T02:47:50;99358.84;;;22.14;100.00
9523;BME280;63165;43.016;25.784;2023-07-20T02:50:17;99352.88;;;22.10;100.00
9523;BME280;63165;43.016;25.784;2023-07-20T02:52:46;99346.00;;;22.07;100.00
9523;BME280;63165;43.016;25.784;2023-07-20T02:55:16;99338.22;;;22.04;100.00
9523;BME280;63165;43.016;25.784;2023-07-20T02:57:43;99330.59;;;22.00;100.00
9523;BME280;63165;43.016;25.784;2023-07-20T03:00:12;99336.13;;;21.97;100.00
9523;BME280;63165;43.016;25.784;2023-07-20T03:02:41;99351.50;;;21.93;100.00
9523;BME280;63165;43.016;25.784;2023-07-20T03:05:08;99356.09;;;21.91;100.00
9523;BME280;63165;43.016;25.784;2023-07-20T03:07:36;99346.28;;;21.91;100.00
9523;BME280;63165;43.016;25.784;2023-07-20T03:10:04;99340.34;;;21.88;100.00
9523;BME280;63165;43.016;25.784;2023-07-20T03:12:34;99357.41;;;21.85;100.00
9523;BME280;63165;43.016;25.784;2023-07-20T03:15:02;99342.28;;;21.86;100.00
9523;BME280;63165;43.016;25.784;2023-07-20T03:17:29;99348.22;;;21.89;100.00
9523;BME280;63165;43.016;25.784;2023-07-20T03:19:56;99351.88;;;21.88;100.00
9523;BME280;63165;43.016;25.784;2023-07-20T03:22:25;99342.53;;;21.83;100.00
9523;BME280;63165;43.016;25.784;2023-07-20T03:24:52;99369.47;;;21.78;100.00
9523;BME280;63165;43.016;25.784;2023-07-20T03:27:19;99368.84;;;21.75;100.00
9523;BME280;63165;43.016;25.784;2023-07-20T03:29:48;99374.53;;;21.70;100.00
9523;BME280;63165;43.016;25.784;2023-07-20T03:32:15;99388.06;;;21.67;100.00
9523;BME280;63165;43.016;25.784;2023-07-20T03:34:42;99390.59;;;21.68;100.00
9523;BME280;63165;43.016;25.784;2023-07-20T03:37:09;99398.59;;;21.68;100.00
9523;BME280;63165;43.016;25.784;2023-07-20T03:39:37;99415.41;;;21.69;100.00
9523;BME280;63165;43.016;25.784;2023-07-20T03:42:04;99427.03;;;21.68;100.00
9523;BME280;63165;43.016;25.784;2023-07-20T03:44:32;99439.16;;;21.72;100.00
9523;BME280;63165;43.016;25.784;2023-07-20T03:47:00;99457.56;;;21.75;100.00
9523;BME280;63165;43.016;25.784;2023-07-20T03:49:29;99449.34;;;21.78;100.00
9523;BME280;63165;43.016;25.784;2023-07-20T03:51:56;99446.47;;;21.81;100.00
9523;BME280;63165;43.016;25.784;2023-07-20T03:54:23;99469.66;;;21.92;100.00
9523;BME280;63165;43.016;25.784;2023-07-20T03:56:50;99486.50;;;21.93;100.00
9523;BME280;63165;43.016;25.784;2023-07-20T03:59:17;99487.84;;;21.98;100.00
9523;BME280;63165;43.016;25.784;2023-07-20T04:01:45;99486.56;;;22.04;100.00
9523;BME280;63165;43.016;25.784;2023-07-20T04:04:16;99481.59;;;22.10;100.00
9523;BME280;63165;43.016;25.784;2023-07-20T04:06:45;99477.88;;;22.13;100.00
9523;BME280;63165;43.016;25.784;2023-07-20T04:09:13;99485.53;;;22.18;100.00
9523;BME280;63165;43.016;25.784;2023-07-20T04:11:40;99492.22;;;22.23;100.00
9523;BME280;63165;43.016;25.784;2023-07-20T04:14:08;99493.59;;;22.29;100.00
9523;BME280;63165;43.016;25.784;2023-07-20T04:16:35;99489.75;;;22.33;100.00
9523;BME280;63165;43.016;25.784;2023-07-20T04:19:03;99490.38;;;22.37;100.00
9523;BME280;63165;43.016;25.784;2023-07-20T04:21:31;99505.66;;;22.46;100.00
9523;BME280;63165;43.016;25.784;2023-07-20T04:23:59;99516.75;;;22.53;100.00
9523;BME280;63165;43.016;25.784;2023-07-20T04:26:26;99518.09;;;22.58;100.00
9523;BME280;63165;43.016;25.784;2023-07-20T04:28:53;99522.13;;;22.64;100.00
9523;BME280;63165;43.016;25.784;2023-07-20T04:31:20;99526.53;;;22.76;100.00
9523;BME280;63165;43.016;25.784;2023-07-20T04:33:48;99526.28;;;22.79;100.00
9523;BME280;63165;43.016;25.784;2023-07-20T04:36:15;99511.50;;;22.86;100.00
9523;BME280;63165;43.016;25.784;2023-07-20T04:38:47;99510.81;;;22.96;100.00
9523;BME280;63165;43.016;25.784;2023-07-20T04:41:14;99507.19;;;22.97;100.00
9523;BME280;63165;43.016;25.784;2023-07-20T04:43:42;99510.59;;;22.99;100.00
9523;BME280;63165;43.016;25.784;2023-07-20T04:46:09;99502.97;;;23.05;100.00
9523;BME280;63165;43.016;25.784;2023-07-20T04:48:37;99505.41;;;23.09;100.00
9523;BME280;63165;43.016;25.784;2023-07-20T04:51:06;99504.09;;;23.14;100.00
9523;BME280;63165;43.016;25.784;2023-07-20T04:53:33;99499.97;;;23.21;100.00
9523;BME280;63165;43.016;25.784;2023-07-20T04:56:02;99483.34;;;23.29;100.00
9523;BME280;63165;43.016;25.784;2023-07-20T04:58:30;99485.75;;;23.43;100.00
9523;BME280;63165;43.016;25.784;2023-07-20T05:00:57;99482.03;;;23.46;100.00
9523;BME280;63165;43.016;25.784;2023-07-20T05:03:25;99485.19;;;23.51;100.00
9523;BME280;63165;43.016;25.784;2023-07-20T05:05:54;99486.50;;;23.57;100.00
9523;BME280;63165;43.016;25.784;2023-07-20T05:08:21;99482.00;;;23.69;100.00
9523;BME280;63165;43.016;25.784;2023-07-20T05:10:49;99486.00;;;23.74;100.00
9523;BME280;63165;43.016;25.784;2023-07-20T05:13:18;99489.06;;;23.81;100.00
9523;BME280;63165;43.016;25.784;2023-07-20T05:15:45;99472.41;;;23.89;99.24
9523;BME280;63165;43.016;25.784;2023-07-20T05:18:13;99470.78;;;23.97;99.08
9523;BME280;63165;43.016;25.784;2023-07-20T05:20:45;99472.84;;;24.05;98.35
9523;BME280;63165;43.016;25.784;2023-07-20T05:23:13;99468.97;;;24.09;99.28
9523;BME280;63165;43.016;25.784;2023-07-20T05:25:40;99465.66;;;24.17;97.02
9523;BME280;63165;43.016;25.784;2023-07-20T05:28:08;99460.63;;;24.23;96.66
9523;BME280;63165;43.016;25.784;2023-07-20T05:30:37;99463.78;;;24.29;96.61
9523;BME280;63165;43.016;25.784;2023-07-20T05:33:04;99460.22;;;24.39;94.17
9523;BME280;63165;43.016;25.784;2023-07-20T05:35:31;99461.41;;;24.47;98.01
9523;BME280;63165;43.016;25.784;2023-07-20T05:37:59;99460.50;;;24.57;99.19
9523;BME280;63165;43.016;25.784;2023-07-20T05:40:26;99464.81;;;24.70;99.45
9523;BME280;63165;43.016;25.784;2023-07-20T05:42:53;99458.56;;;24.80;97.80
9523;BME280;63165;43.016;25.784;2023-07-20T05:45:22;99457.50;;;24.93;97.34
9523;BME280;63165;43.016;25.784;2023-07-20T05:47:51;99459.13;;;25.05;96.76
9523;BME280;63165;43.016;25.784;2023-07-20T05:50:19;99459.03;;;25.16;92.42
9523;BME280;63165;43.016;25.784;2023-07-20T05:52:46;99464.19;;;25.29;88.71
9523;BME280;63165;43.016;25.784;2023-07-20T05:55:13;99461.44;;;25.41;86.94
9523;BME280;63165;43.016;25.784;2023-07-20T05:57:41;99465.69;;;25.53;86.26
9523;BME280;63165;43.016;25.784;2023-07-20T06:00:10;99463.75;;;25.65;86.47
9523;BME280;63165;43.016;25.784;2023-07-20T06:02:38;99464.63;;;25.75;84.15
9523;BME280;63165;43.016;25.784;2023-07-20T06:05:08;99458.16;;;25.87;84.98
9523;BME280;63165;43.016;25.784;2023-07-20T06:07:36;99457.38;;;25.97;86.29
9523;BME280;63165;43.016;25.784;2023-07-20T06:10:05;99462.16;;;26.12;84.17
9523;BME280;63165;43.016;25.784;2023-07-20T06:12:32;99457.38;;;26.26;83.75
9523;BME280;63165;43.016;25.784;2023-07-20T06:15:02;99454.28;;;26.40;83.21
9523;BME280;63165;43.016;25.784;2023-07-20T06:17:30;99451.44;;;26.51;81.17
9523;BME280;63165;43.016;25.784;2023-07-20T06:19:58;99454.72;;;26.65;80.76
9523;BME280;63165;43.016;25.784;2023-07-20T06:22:27;99464.16;;;26.79;78.89
9523;BME280;63165;43.016;25.784;2023-07-20T06:24:54;99454.81;;;26.92;80.59
9523;BME280;63165;43.016;25.784;2023-07-20T06:27:22;99452.63;;;27.06;77.95
9523;BME280;63165;43.016;25.784;2023-07-20T06:29:49;99452.59;;;27.16;76.62
9523;BME280;63165;43.016;25.784;2023-07-20T06:32:16;99456.00;;;27.27;74.60
9523;BME280;63165;43.016;25.784;2023-07-20T06:34:43;99454.78;;;27.40;74.00
9523;BME280;63165;43.016;25.784;2023-07-20T06:37:10;99457.28;;;27.51;68.93
9523;BME280;63165;43.016;25.784;2023-07-20T06:39:39;99457.09;;;27.62;67.63
9523;BME280;63165;43.016;25.784;2023-07-20T06:42:07;99454.38;;;27.72;69.43
9523;BME280;63165;43.016;25.784;2023-07-20T06:44:34;99462.91;;;27.85;70.34
9523;BME280;63165;43.016;25.784;2023-07-20T06:47:02;99454.34;;;28.00;69.72
9523;BME280;63165;43.016;25.784;2023-07-20T06:49:29;99451.13;;;28.14;66.44
9523;BME280;63165;43.016;25.784;2023-07-20T06:51:57;99456.41;;;28.24;65.58
9523;BME280;63165;43.016;25.784;2023-07-20T06:54:24;99461.22;;;28.30;65.55
9523;BME280;63165;43.016;25.784;2023-07-20T06:56:53;99463.97;;;28.38;64.17
9523;BME280;63165;43.016;25.784;2023-07-20T06:59:20;99462.72;;;28.51;65.80
9523;BME280;63165;43.016;25.784;2023-07-20T07:01:47;99472.94;;;28.65;64.73
9523;BME280;63165;43.016;25.784;2023-07-20T07:04:14;99470.34;;;28.73;62.44
9523;BME280;63165;43.016;25.784;2023-07-20T07:06:41;99465.31;;;28.78;61.90
9523;BME280;63165;43.016;25.784;2023-07-20T07:09:09;99458.66;;;28.91;60.08
9523;BME280;63165;43.016;25.784;2023-07-20T07:11:37;99469.47;;;28.99;60.93
9523;BME280;63165;43.016;25.784;2023-07-20T07:14:06;99479.31;;;29.08;59.25
9523;BME280;63165;43.016;25.784;2023-07-20T07:16:33;99475.16;;;29.14;61.41
9523;BME280;63165;43.016;25.784;2023-07-20T07:19:00;99477.25;;;29.20;60.73
9523;BME280;63165;43.016;25.784;2023-07-20T07:21:29;99474.88;;;29.25;59.72
9523;BME280;63165;43.016;25.784;2023-07-20T07:23:56;99483.88;;;29.34;59.12
9523;BME280;63165;43.016;25.784;2023-07-20T07:26:25;99478.19;;;29.45;59.91
9523;BME280;63165;43.016;25.784;2023-07-20T07:28:52;99478.94;;;29.64;59.60
9523;BME280;63165;43.016;25.784;2023-07-20T07:31:21;99476.97;;;29.74;60.03
9523;BME280;63165;43.016;25.784;2023-07-20T07:33:49;99481.06;;;29.86;58.29
9523;BME280;63165;43.016;25.784;2023-07-20T07:36:16;99486.47;;;29.94;58.46
9523;BME280;63165;43.016;25.784;2023-07-20T07:38:43;99477.41;;;30.04;58.94
9523;BME280;63165;43.016;25.784;2023-07-20T07:41:10;99476.25;;;30.14;59.24
9523;BME280;63165;43.016;25.784;2023-07-20T07:43:37;99474.41;;;30.31;59.37
9523;BME280;63165;43.016;25.784;2023-07-20T07:46:05;99473.44;;;30.41;57.46
9523;BME280;63165;43.016;25.784;2023-07-20T07:48:33;99480.38;;;30.51;55.37
9523;BME280;63165;43.016;25.784;2023-07-20T07:51:00;99471.75;;;30.56;55.29
9523;BME280;63165;43.016;25.784;2023-07-20T07:53:28;99486.09;;;30.65;54.35
9523;BME280;63165;43.016;25.784;2023-07-20T07:55:55;99482.72;;;30.71;53.91
9523;BME280;63165;43.016;25.784;2023-07-20T07:58:22;99478.66;;;30.83;54.33
9523;BME280;63165;43.016;25.784;2023-07-20T08:00:49;99483.41;;;30.98;54.91
9523;BME280;63165;43.016;25.784;2023-07-20T08:03:16;99480.16;;;31.10;54.30
9523;BME280;63165;43.016;25.784;2023-07-20T08:05:47;99475.91;;;31.24;54.17
9523;BME280;63165;43.016;25.784;2023-07-20T08:08:14;99479.44;;;31.33;53.42
9523;BME280;63165;43.016;25.784;2023-07-20T08:10:41;99470.47;;;31.41;52.62
9523;BME280;63165;43.016;25.784;2023-07-20T08:13:08;99474.31;;;31.54;51.63
9523;BME280;63165;43.016;25.784;2023-07-20T08:15:35;99480.16;;;31.66;50.53
9523;BME280;63165;43.016;25.784;2023-07-20T08:18:03;99477.66;;;31.65;49.79
9523;BME280;63165;43.016;25.784;2023-07-20T08:20:30;99472.56;;;31.70;51.45
9523;BME280;63165;43.016;25.784;2023-07-20T08:22:59;99473.53;;;31.77;51.59
9523;BME280;63165;43.016;25.784;2023-07-20T08:25:26;99479.44;;;31.81;51.07
9523;BME280;63165;43.016;25.784;2023-07-20T08:27:53;99480.59;;;31.86;51.28
9523;BME280;63165;43.016;25.784;2023-07-20T08:30:21;99489.13;;;31.98;50.18
9523;BME280;63165;43.016;25.784;2023-07-20T08:32:49;99499.28;;;32.04;50.95
9523;BME280;63165;43.016;25.784;2023-07-20T08:35:16;99491.66;;;32.08;50.02
9523;BME280;63165;43.016;25.784;2023-07-20T08:37:44;99487.19;;;32.15;51.01
9523;BME280;63165;43.016;25.784;2023-07-20T08:40:14;99485.47;;;32.22;50.62
9523;BME280;63165;43.016;25.784;2023-07-20T08:42:41;99489.50;;;32.26;51.09
9523;BME280;63165;43.016;25.784;2023-07-20T08:45:09;99483.06;;;32.27;50.50
9523;BME280;63165;43.016;25.784;2023-07-20T08:47:41;99472.25;;;32.27;50.90
9523;BME280;63165;43.016;25.784;2023-07-20T08:50:10;99483.19;;;32.34;50.15
9523;BME280;63165;43.016;25.784;2023-07-20T08:52:38;99480.78;;;32.39;49.70
9523;BME280;63165;43.016;25.784;2023-07-20T08:55:06;99477.16;;;32.47;49.05
9523;BME280;63165;43.016;25.784;2023-07-20T08:57:36;99481.88;;;32.53;49.18
9523;BME280;63165;43.016;25.784;2023-07-20T09:00:06;99480.72;;;32.47;48.07
9523;BME280;63165;43.016;25.784;2023-07-20T09:02:38;99482.41;;;32.48;49.12
9523;BME280;63165;43.016;25.784;2023-07-20T09:05:08;99482.41;;;32.48;47.97
9523;BME280;63165;43.016;25.784;2023-07-20T09:07:36;99483.03;;;32.59;48.10
9523;BME280;63165;43.016;25.784;2023-07-20T09:10:03;99479.31;;;32.75;47.07
9523;BME280;63165;43.016;25.784;2023-07-20T09:12:31;99480.56;;;32.87;47.53
9523;BME280;63165;43.016;25.784;2023-07-20T09:15:00;99489.66;;;32.94;47.16
9523;BME280;63165;43.016;25.784;2023-07-20T09:17:28;99487.97;;;33.08;47.02
9523;BME280;63165;43.016;25.784;2023-07-20T09:19:55;99493.44;;;33.23;47.15
9523;BME280;63165;43.016;25.784;2023-07-20T09:22:22;99485.19;;;33.31;46.32
9523;BME280;63165;43.016;25.784;2023-07-20T09:24:56;99496.06;;;33.46;46.05
9523;BME280;63165;43.016;25.784;2023-07-20T09:27:34;99499.63;;;33.61;46.66
9523;BME280;63165;43.016;25.784;2023-07-20T09:30:04;99499.34;;;33.71;44.10
9523;BME280;63165;43.016;25.784;2023-07-20T09:32:38;99505.41;;;33.73;44.99
9523;BME280;63165;43.016;25.784;2023-07-20T09:35:06;99495.78;;;33.86;45.52
9523;BME280;63165;43.016;25.784;2023-07-20T09:37:34;99484.41;;;33.97;45.99
9523;BME280;63165;43.016;25.784;2023-07-20T09:40:01;99475.78;;;34.08;45.06
9523;BME280;63165;43.016;25.784;2023-07-20T09:42:29;99455.06;;;34.22;44.14
9523;BME280;63165;43.016;25.784;2023-07-20T09:44:56;99441.16;;;34.32;43.57
9523;BME280;63165;43.016;25.784;2023-07-20T09:47:25;99434.94;;;34.38;42.76
9523;BME280;63165;43.016;25.784;2023-07-20T09:49:58;99434.50;;;34.34;42.35
9523;BME280;63165;43.016;25.784;2023-07-20T09:52:27;99450.47;;;34.44;41.16
9523;BME280;63165;43.016;25.784;2023-07-20T09:54:55;99451.09;;;34.46;42.76
9523;BME280;63165;43.016;25.784;2023-07-20T09:57:23;99453.72;;;34.61;43.14
9523;BME280;63165;43.016;25.784;2023-07-20T09:59:50;99430.66;;;34.72;41.94
9523;BME280;63165;43.016;25.784;2023-07-20T10:02:21;99443.16;;;34.94;40.48
9523;BME280;63165;43.016;25.784;2023-07-20T10:04:53;99434.44;;;35.06;40.78
9523;BME280;63165;43.016;25.784;2023-07-20T10:07:22;99436.41;;;35.18;41.49
9523;BME280;63165;43.016;25.784;2023-07-20T10:09:56;99427.25;;;35.26;40.29
9523;BME280;63165;43.016;25.784;2023-07-20T10:12:27;99422.81;;;35.18;41.55
9523;BME280;63165;43.016;25.784;2023-07-20T10:15:06;99401.38;;;35.09;40.95
9523;BME280;63165;43.016;25.784;2023-07-20T10:17:37;99412.25;;;35.09;41.00
9523;BME280;63165;43.016;25.784;2023-07-20T10:20:10;99417.94;;;35.14;41.78
9523;BME280;63165;43.016;25.784;2023-07-20T10:22:38;99412.94;;;35.17;41.25
9523;BME280;63165;43.016;25.784;2023-07-20T10:25:06;99407.34;;;35.26;40.31
9523;BME280;63165;43.016;25.784;2023-07-20T10:27:34;99397.78;;;35.36;40.70
9523;BME280;63165;43.016;25.784;2023-07-20T10:30:02;99397.41;;;35.46;40.54
9523;BME280;63165;43.016;25.784;2023-07-20T10:32:30;99407.91;;;35.56;41.32
9523;BME280;63165;43.016;25.784;2023-07-20T10:34:57;99400.00;;;35.68;39.99
9523;BME280;63165;43.016;25.784;2023-07-20T10:37:51;99399.81;;;35.76;39.80
9523;BME280;63165;43.016;25.784;2023-07-20T10:40:29;99405.94;;;35.85;39.72
9523;BME280;63165;43.016;25.784;2023-07-20T10:43:02;99400.91;;;35.88;39.63
9523;BME280;63165;43.016;25.784;2023-07-20T10:45:34;99398.19;;;35.95;40.02
9523;BME280;63165;43.016;25.784;2023-07-20T10:48:05;99388.16;;;36.02;37.76
9523;BME280;63165;43.016;25.784;2023-07-20T10:50:32;99390.88;;;36.09;39.77
9523;BME280;63165;43.016;25.784;2023-07-20T10:53:10;99390.88;;;36.09;38.83
9523;BME280;63165;43.016;25.784;2023-07-20T10:55:37;99378.72;;;36.11;39.00
9523;BME280;63165;43.016;25.784;2023-07-20T10:58:11;99393.84;;;36.14;40.28
9523;BME280;63165;43.016;25.784;2023-07-20T11:00:56;99391.75;;;36.23;40.27
9523;BME280;63165;43.016;25.784;2023-07-20T11:03:29;99390.31;;;36.33;39.75
9523;BME280;63165;43.016;25.784;2023-07-20T11:05:57;99382.13;;;36.40;39.98
9523;BME280;63165;43.016;25.784;2023-07-20T11:08:42;99377.53;;;36.41;39.17
9523;BME280;63165;43.016;25.784;2023-07-20T11:11:22;99377.50;;;36.47;38.79
9523;BME280;63165;43.016;25.784;2023-07-20T11:13:57;99380.00;;;36.49;39.10
9523;BME280;63165;43.016;25.784;2023-07-20T11:16:36;99378.97;;;36.50;38.59
9523;BME280;63165;43.016;25.784;2023-07-20T11:19:04;99371.22;;;36.53;37.84
9523;BME280;63165;43.016;25.784;2023-07-20T11:21:36;99378.75;;;36.58;37.39
9523;BME280;63165;43.016;25.784;2023-07-20T11:24:07;99369.94;;;36.63;37.20
9523;BME280;63165;43.016;25.784;2023-07-20T11:26:45;99373.53;;;36.70;38.04
9523;BME280;63165;43.016;25.784;2023-07-20T11:29:13;99371.00;;;36.75;37.51
9523;BME280;63165;43.016;25.784;2023-07-20T11:31:42;99365.94;;;36.79;37.91
9523;BME280;63165;43.016;25.784;2023-07-20T11:34:11;99364.88;;;36.86;37.03
9523;BME280;63165;43.016;25.784;2023-07-20T11:36:40;99364.47;;;36.89;37.04
9523;BME280;63165;43.016;25.784;2023-07-20T11:39:11;99361.72;;;36.96;37.74
9523;BME280;63165;43.016;25.784;2023-07-20T11:41:41;99351.19;;;37.06;37.23
9523;BME280;63165;43.016;25.784;2023-07-20T11:44:10;99341.31;;;37.05;36.43
9523;BME280;63165;43.016;25.784;2023-07-20T11:46:39;99358.50;;;37.13;37.63
9523;BME280;63165;43.016;25.784;2023-07-20T11:49:06;99347.19;;;37.16;36.55
9523;BME280;63165;43.016;25.784;2023-07-20T11:51:34;99349.25;;;37.20;36.26
9523;BME280;63165;43.016;25.784;2023-07-20T11:54:03;99345.50;;;37.21;37.40
9523;BME280;63165;43.016;25.784;2023-07-20T11:56:32;99347.41;;;37.21;37.44
9523;BME280;63165;43.016;25.784;2023-07-20T11:59:00;99350.28;;;37.26;36.97
9523;BME280;63165;43.016;25.784;2023-07-20T12:01:29;99347.19;;;37.22;37.76
9523;BME280;63165;43.016;25.784;2023-07-20T12:04:00;99331.84;;;37.21;36.95
9523;BME280;63165;43.016;25.784;2023-07-20T12:06:29;99334.59;;;37.21;36.70
9523;BME280;63165;43.016;25.784;2023-07-20T12:08:57;99334.31;;;37.29;36.47
9523;BME280;63165;43.016;25.784;2023-07-20T12:11:34;99327.00;;;37.30;36.58
9523;BME280;63165;43.016;25.784;2023-07-20T12:14:03;99320.75;;;37.23;36.51
9523;BME280;63165;43.016;25.784;2023-07-20T12:16:31;99313.13;;;37.32;36.63
9523;BME280;63165;43.016;25.784;2023-07-20T12:19:02;99296.72;;;37.38;36.92
9523;BME280;63165;43.016;25.784;2023-07-20T12:21:30;99307.59;;;37.45;36.93
9523;BME280;63165;43.016;25.784;2023-07-20T12:23:58;99284.94;;;37.44;36.46
9523;BME280;63165;43.016;25.784;2023-07-20T12:26:26;99275.63;;;37.52;36.03
9523;BME280;63165;43.016;25.784;2023-07-20T12:28:54;99277.72;;;37.57;36.30
9523;BME280;63165;43.016;25.784;2023-07-20T12:31:23;99266.16;;;37.61;35.83
9523;BME280;63165;43.016;25.784;2023-07-20T12:33:51;99267.63;;;37.64;34.74
9523;BME280;63165;43.016;25.784;2023-07-20T12:36:21;99261.47;;;37.68;34.78
9523;BME280;63165;43.016;25.784;2023-07-20T12:38:49;99261.34;;;37.63;34.07
9523;BME280;63165;43.016;25.784;2023-07-20T12:41:17;99254.69;;;37.46;34.24
9523;BME280;63165;43.016;25.784;2023-07-20T12:43:47;99247.88;;;37.30;35.23
9523;BME280;63165;43.016;25.784;2023-07-20T12:46:17;99238.31;;;37.14;35.13
9523;BME280;63165;43.016;25.784;2023-07-20T12:48:44;99247.13;;;37.16;34.78
9523;BME280;63165;43.016;25.784;2023-07-20T12:51:12;99237.66;;;37.12;35.32
9523;BME280;63165;43.016;25.784;2023-07-20T12:53:40;99238.50;;;37.13;34.95
9523;BME280;63165;43.016;25.784;2023-07-20T12:56:09;99252.75;;;37.21;35.34
9523;BME280;63165;43.016;25.784;2023-07-20T12:58:38;99247.31;;;37.21;35.49
9523;BME280;63165;43.016;25.784;2023-07-20T13:01:07;99243.97;;;37.19;33.63
9523;BME280;63165;43.016;25.784;2023-07-20T13:03:36;99247.34;;;37.08;34.01
9523;BME280;63165;43.016;25.784;2023-07-20T13:06:04;99234.22;;;36.91;33.39